Time;durP1;ratioP1;P1;durP2;ratioP2;P2;SDS_P1;SDS_P2;PMS_P1;PMS_P2;Temp;Humidity;BMP_temperature;BMP_pressure;BME280_temperature;BME280_humidity;BME280_pressure;Samples;Min_cycle;Max_cycle;Signal;HPM_P1;HPM_P2
2023/10/13 00:01:34;;;;;;;30.50;17.80;;;436.10;2355.20;;;;;;5052944;28;20048;-79
2023/10/13 00:04:05;;;;;;;28.92;17.55;;;436.00;2355.20;;;;;;5054267;28;20021;-78
2023/10/13 00:06:31;;;;;;;32.03;17.90;;;435.80;2355.20;;;;;;5052805;28;20029;-79
2023/10/13 00:08:57;;;;;;;35.03;18.40;;;435.60;2355.20;;;;;;5054295;28;20028;-79
2023/10/13 00:11:22;;;;;;;33.60;18.15;;;435.60;2355.20;;;;;;5052610;28;20110;-78
2023/10/13 00:13:52;;;;;;;32.13;16.73;;;435.60;2355.20;;;;;;5052666;28;20028;-79
2023/10/13 00:16:21;;;;;;;27.23;15.32;;;435.70;2355.20;;;;;;5070332;28;20037;-77
2023/10/13 00:18:50;;;;;;;29.95;16.63;;;435.80;2355.20;;;;;;5077354;28;20009;-77
2023/10/13 00:21:19;;;;;;;28.30;17.58;;;435.60;2355.20;;;;;;5061417;28;20021;-78
2023/10/13 00:23:52;;;;;;;29.10;16.92;;;435.60;2355.20;;;;;;5053170;28;20029;-79
2023/10/13 00:26:27;;;;;;;29.88;17.00;;;435.40;2355.20;;;;;;5053235;28;20013;-78
2023/10/13 00:31:42;;;;;;;28.92;16.65;;;435.20;2355.20;;;;;;5042241;28;20656;-78
2023/10/13 00:34:12;;;;;;;24.65;15.10;;;410.40;2355.20;;;;;;5053442;28;20497;-78
2023/10/13 00:37:28;;;;;;;27.40;14.75;;;410.30;2355.20;;;;;;5053218;28;20095;-79
2023/10/13 00:39:28;;;;;;;26.88;15.85;;;410.20;2355.20;;;;;;5035695;28;20367;-78
2023/10/13 00:42:06;;;;;;;29.20;16.42;;;410.00;2355.20;;;;;;5053203;28;20046;-78
2023/10/13 00:44:43;;;;;;;31.02;16.52;;;410.50;2355.20;;;;;;5041247;28;20045;-79
2023/10/13 00:47:10;;;;;;;31.13;15.25;;;410.30;2355.20;;;;;;5053188;28;20036;-79
2023/10/13 00:49:39;;;;;;;27.88;16.80;;;410.40;2355.20;;;;;;5052328;28;20043;-79
2023/10/13 00:52:10;;;;;;;32.20;15.70;;;410.40;2355.20;;;;;;5053238;28;20013;-79
2023/10/13 00:54:37;;;;;;;36.85;18.15;;;410.30;2355.20;;;;;;5051750;28;20503;-78
2023/10/13 00:57:12;;;;;;;28.17;16.77;;;410.00;2355.20;;;;;;5051924;28;20170;-79
2023/10/13 00:59:38;;;;;;;34.35;16.55;;;410.00;2355.20;;;;;;5051373;28;20028;-78
2023/10/13 01:04:56;;;;;;;30.10;16.33;;;409.90;2355.20;;;;;;5048926;28;20035;-79
2023/10/13 01:07:22;;;;;;;29.15;16.05;;;410.00;2355.20;;;;;;5031096;28;20548;-79
2023/10/13 01:09:48;;;;;;;28.20;15.57;;;409.90;2355.20;;;;;;5045960;28;20040;-79
2023/10/13 01:12:14;;;;;;;32.85;17.00;;;409.80;2355.20;;;;;;5050601;28;20033;-80
2023/10/13 01:14:40;;;;;;;22.45;15.13;;;409.90;2355.20;;;;;;5034024;28;20148;-79
2023/10/13 01:17:06;;;;;;;31.95;14.02;;;410.00;2355.20;;;;;;5051019;28;20563;-79
2023/10/13 01:19:38;;;;;;;23.52;13.93;;;410.20;2355.20;;;;;;5050576;28;20021;-79
2023/10/13 01:22:06;;;;;;;31.13;16.65;;;410.20;2355.20;;;;;;5050555;28;20041;-79
2023/10/13 01:24:35;;;;;;;27.40;15.50;;;410.20;2355.20;;;;;;5050571;28;20025;-79
2023/10/13 01:27:16;;;;;;;26.02;15.45;;;410.10;2355.20;;;;;;5033989;28;20029;-79
2023/10/13 01:29:58;;;;;;;29.25;14.07;;;410.20;2355.20;;;;;;5050711;28;20422;-80
2023/10/13 01:32:24;;;;;;;20.23;13.20;;;410.30;2355.20;;;;;;5037068;28;20029;-79
2023/10/13 01:34:55;;;;;;;19.10;11.32;;;410.50;2355.20;;;;;;5050971;28;20414;-80
2023/10/13 01:37:21;;;;;;;19.75;12.73;;;435.20;2355.20;;;;;;5047711;28;20186;-79
2023/10/13 01:39:49;;;;;;;21.65;13.23;;;435.20;2355.20;;;;;;5039806;28;20092;-79
2023/10/13 01:42:21;;;;;;;20.30;12.52;;;435.30;2355.20;;;;;;5039860;28;20065;-79
2023/10/13 01:44:47;;;;;;;30.27;12.45;;;435.30;2355.20;;;;;;5051429;28;20110;-79
2023/10/13 01:47:13;;;;;;;24.00;12.57;;;435.20;2355.20;;;;;;5051477;28;20033;-79
2023/10/13 01:49:42;;;;;;;21.65;12.90;;;410.50;2355.20;;;;;;5052812;28;20471;-79
2023/10/13 01:52:15;;;;;;;22.15;11.85;;;410.50;2355.20;;;;;;5051484;28;20013;-79
2023/10/13 01:54:44;;;;;;;19.35;12.35;;;410.50;2355.20;;;;;;5051417;28;20040;-79
2023/10/13 01:57:14;;;;;;;26.23;13.85;;;435.20;2355.20;;;;;;5052562;28;20021;-79
2023/10/13 01:59:44;;;;;;;17.73;12.13;;;410.50;2355.20;;;;;;5043516;28;20040;-79
2023/10/13 02:02:14;;;;;;;27.85;12.73;;;435.20;2355.20;;;;;;5051380;28;20017;-79
2023/10/13 02:04:48;;;;;;;21.77;12.20;;;435.20;2355.20;;;;;;5052533;28;20021;-79
2023/10/13 02:07:17;;;;;;;21.83;12.45;;;435.20;2355.20;;;;;;5052434;28;20083;-79
2023/10/13 02:09:44;;;;;;;23.02;12.98;;;435.20;2355.20;;;;;;5052598;28;20021;-79
2023/10/13 02:12:10;;;;;;;28.85;12.75;;;435.20;2355.20;;;;;;5054770;28;20033;-79
2023/10/13 02:14:39;;;;;;;22.38;12.93;;;435.20;2355.20;;;;;;5055984;28;20032;-79
2023/10/13 02:17:16;;;;;;;19.48;13.48;;;410.50;2355.20;;;;;;5055070;28;20021;-79
2023/10/13 02:19:45;;;;;;;24.67;13.07;;;410.50;2355.20;;;;;;5054779;28;20424;-79
2023/10/13 02:22:12;;;;;;;22.35;13.23;;;410.50;2355.20;;;;;;5054798;28;20029;-79
2023/10/13 02:24:40;;;;;;;24.20;13.73;;;435.20;2355.20;;;;;;5054568;28;20025;-79
2023/10/13 02:27:13;;;;;;;26.52;14.10;;;435.20;2355.20;;;;;;5054635;28;20031;-79
2023/10/13 02:29:46;;;;;;;25.83;13.13;;;435.20;2355.20;;;;;;5055585;28;20017;-79
2023/10/13 02:32:21;;;;;;;19.48;11.77;;;410.30;2355.20;;;;;;5054729;28;20158;-78
2023/10/13 02:34:47;;;;;;;28.40;12.20;;;410.20;2355.20;;;;;;5043094;28;20033;-75
2023/10/13 02:37:13;;;;;;;24.40;12.77;;;410.10;2355.20;;;;;;5055117;28;20262;-75
2023/10/13 02:39:43;;;;;;;26.42;14.18;;;410.00;2355.20;;;;;;5055239;28;20474;-75
2023/10/13 02:42:16;;;;;;;23.15;13.63;;;409.90;2355.20;;;;;;5055198;28;20078;-75
2023/10/13 02:44:45;;;;;;;22.98;13.43;;;409.80;2355.20;;;;;;5055082;28;20600;-75
2023/10/13 02:47:14;;;;;;;22.92;13.93;;;409.70;2355.20;;;;;;5055125;28;20021;-75
2023/10/13 02:49:45;;;;;;;19.40;12.90;;;409.80;2355.20;;;;;;5055141;28;20032;-75
2023/10/13 02:52:12;;;;;;;21.80;13.98;;;409.90;2355.20;;;;;;5054837;28;20497;-75
2023/10/13 02:54:57;;;;;;;24.48;14.20;;;409.70;2355.20;;;;;;5055000;28;20040;-75
2023/10/13 02:57:23;;;;;;;20.27;13.70;;;409.60;2355.20;;;;;;5054585;28;20070;-75
2023/10/13 03:00:12;;;;;;;32.00;13.55;;;409.70;2355.20;;;;;;5055013;28;20486;-75
2023/10/13 03:02:44;;;;;;;28.10;13.57;;;409.70;2355.20;;;;;;5044669;28;20146;-75
2023/10/13 03:05:09;;;;;;;23.80;14.48;;;409.70;2355.20;;;;;;5054778;28;20024;-75
2023/10/13 03:07:36;;;;;;;25.20;14.25;;;409.90;2355.20;;;;;;5054611;28;20021;-75
2023/10/13 03:10:12;;;;;;;29.33;13.38;;;409.90;2355.20;;;;;;5054478;28;20028;-75
2023/10/13 03:12:39;;;;;;;23.52;13.45;;;409.80;2355.20;;;;;;5053356;28;20064;-75
2023/10/13 03:15:14;;;;;;;21.23;14.43;;;409.90;2355.20;;;;;;5054351;28;20041;-75
2023/10/13 03:17:43;;;;;;;25.02;13.85;;;409.80;2355.20;;;;;;5054495;28;20499;-75
2023/10/13 03:20:31;;;;;;;29.58;14.13;;;409.70;2355.20;;;;;;5041986;28;20020;-75
2023/10/13 03:22:57;;;;;;;27.40;14.77;;;384.70;2329.60;;;;;;5054257;28;20013;-75
2023/10/13 03:25:28;;;;;;;32.95;15.93;;;384.70;2329.60;;;;;;5054573;28;20021;-75
2023/10/13 03:30:34;;;;;;;23.90;15.15;;;384.60;2329.60;;;;;;5054413;28;20021;-75
2023/10/13 03:33:01;;;;;;;28.15;16.65;;;384.70;2329.60;;;;;;5054386;28;20470;-75
2023/10/13 03:35:37;;;;;;;27.48;17.25;;;384.60;2329.60;;;;;;5053152;28;20041;-75
2023/10/13 03:38:04;;;;;;;32.92;17.50;;;384.60;2329.60;;;;;;5054088;28;20108;-75
2023/10/13 03:43:04;;;;;;;38.35;17.63;;;384.60;2329.60;;;;;;5044765;28;20099;-75
2023/10/13 03:45:39;;;;;;;32.38;17.90;;;384.50;2329.60;;;;;;5050032;28;20483;-75
2023/10/13 03:48:09;;;;;;;34.42;18.20;;;384.60;2329.60;;;;;;5046412;28;20057;-75
2023/10/13 03:50:57;;;;;;;32.53;18.67;;;384.70;2329.60;;;;;;5048682;28;20496;-75
2023/10/13 03:53:25;;;;;;;30.85;19.63;;;384.90;2329.60;;;;;;5058121;28;20033;-75
2023/10/13 03:56:07;;;;;;;31.20;18.50;;;409.70;2355.20;;;;;;5057480;28;20037;-75
2023/10/13 03:58:38;;;;;;;29.85;18.08;;;409.60;2355.20;;;;;;5059018;28;20378;-75
2023/10/13 04:01:09;;;;;;;31.60;18.80;;;409.70;2355.20;;;;;;5046793;28;20029;-75
2023/10/13 04:03:36;;;;;;;29.20;17.33;;;409.90;2355.20;;;;;;5053062;28;20021;-75
2023/10/13 04:06:08;;;;;;;34.58;18.50;;;410.00;2355.20;;;;;;5046738;28;20496;-75
2023/10/13 04:16:51;;;;;;;30.25;19.48;;;409.80;2355.20;;;;;;5046753;28;20175;-82
2023/10/13 04:19:23;;;;;;;30.60;19.08;;;409.90;2355.20;;;;;;5043027;28;20537;-82
2023/10/13 04:21:57;;;;;;;36.95;20.85;;;410.00;2355.20;;;;;;5051971;28;20033;-82
2023/10/13 04:24:39;;;;;;;36.00;21.05;;;410.10;2355.20;;;;;;5056851;28;20026;-82
2023/10/13 04:30:10;;;;;;;29.77;18.65;;;409.90;2355.20;;;;;;5043929;28;20071;-82
2023/10/13 04:32:41;;;;;;;37.15;20.33;;;409.90;2355.20;;;;;;5045689;28;20052;-83
2023/10/13 04:35:18;;;;;;;31.15;19.35;;;409.80;2355.20;;;;;;5046084;28;20079;-82
2023/10/13 04:40:19;;;;;;;37.70;17.80;;;409.60;2355.20;;;;;;5056040;28;20115;-81
2023/10/13 04:43:04;;;;;;;33.78;18.88;;;384.80;2329.60;;;;;;5057392;28;20040;-80
2023/10/13 04:48:27;;;;;;;26.35;17.60;;;384.70;2329.60;;;;;;5050877;28;20071;-76
2023/10/13 04:51:23;;;;;;;32.22;18.35;;;384.60;2329.60;;;;;;5051256;28;20029;-78
2023/10/13 04:54:10;;;;;;;27.00;17.90;;;384.60;2329.60;;;;;;5053075;28;20468;-80
2023/10/13 05:05:11;;;;;;;40.10;19.38;;;384.40;2329.60;;;;;;5053305;28;20108;-80
2023/10/13 06:29:55;;;;;;;64.22;40.58;;;435.20;2355.20;;;;;;5055295;28;20055;-75
2023/10/13 06:32:25;;;;;;;67.53;42.35;;;435.30;2355.20;;;;;;5055421;28;20047;-75
2023/10/13 06:35:18;;;;;;;66.47;44.33;;;435.30;2355.20;;;;;;5055087;28;20123;-74
2023/10/13 06:37:44;;;;;;;73.07;47.25;;;435.40;2355.20;;;;;;5055315;28;20021;-76
2023/10/13 06:43:11;;;;;;;67.43;48.00;;;435.90;2355.20;;;;;;5054724;28;20037;-77
2023/10/13 06:45:37;;;;;;;71.05;49.38;;;436.10;2355.20;;;;;;5055217;28;20029;-77
2023/10/13 06:48:04;;;;;;;71.53;47.53;;;460.80;2380.80;;;;;;5055189;28;20028;-76
2023/10/13 06:50:39;;;;;;;72.38;47.65;;;461.10;2380.80;;;;;;5053624;28;20028;-76
2023/10/13 06:53:05;;;;;;;69.18;47.80;;;461.20;2380.80;;;;;;5054183;28;20052;-79
2023/10/13 06:55:35;;;;;;;68.97;46.25;;;461.10;2380.80;;;;;;5053014;28;20037;-80
2023/10/13 06:58:06;;;;;;;64.93;45.40;;;461.30;2380.80;;;;;;5054871;28;20100;-79
2023/10/13 07:00:37;;;;;;;66.35;46.20;;;461.50;2380.80;;;;;;5053789;28;20025;-79
2023/10/13 07:03:17;;;;;;;79.90;55.40;;;461.60;2380.80;;;;;;5040850;28;20045;-80
2023/10/13 07:05:43;;;;;;;122.15;76.22;;;461.70;2380.80;;;;;;5053579;28;20098;-79
2023/10/13 07:08:14;;;;;;;122.47;81.15;;;486.40;2380.80;;;;;;5053737;28;20029;-79
2023/10/13 07:11:01;;;;;;;100.05;69.35;;;486.50;2380.80;;;;;;5054226;28;20021;-78
2023/10/13 07:13:28;;;;;;;83.50;57.83;;;486.50;2380.80;;;;;;5054754;28;20051;-80
2023/10/13 07:15:59;;;;;;;80.28;55.38;;;486.70;2380.80;;;;;;5054405;28;20566;-79
2023/10/13 07:18:26;;;;;;;74.03;53.90;;;486.70;2380.80;;;;;;5053808;28;20433;-79
2023/10/13 07:20:57;;;;;;;80.38;55.72;;;486.80;2380.80;;;;;;5041788;28;20024;-79
2023/10/13 07:23:24;;;;;;;79.18;53.85;;;486.90;2380.80;;;;;;5054739;28;20025;-79
2023/10/13 07:25:55;;;;;;;75.32;50.72;;;486.90;2380.80;;;;;;5053670;28;20036;-83
2023/10/13 07:28:21;;;;;;;63.45;45.22;;;487.20;2380.80;;;;;;5062747;28;20051;-79
2023/10/13 07:33:22;;;;;;;66.47;45.70;;;512.00;2380.80;;;;;;5065211;28;20047;-78
2023/10/13 07:35:58;;;;;;;65.15;44.05;;;512.10;2380.80;;;;;;5053423;28;20040;-75
2023/10/13 07:38:26;;;;;;;63.75;44.05;;;512.30;2380.80;;;;;;5054006;28;20017;-77
2023/10/13 07:40:52;;;;;;;61.92;44.13;;;512.40;2380.80;;;;;;5054287;28;20486;-76
2023/10/13 07:43:23;;;;;;;57.00;40.33;;;512.50;2380.80;;;;;;5052250;28;20131;-77
2023/10/13 07:45:58;;;;;;;62.33;41.22;;;512.60;2380.80;;;;;;5054126;28;20025;-77
2023/10/13 07:48:25;;;;;;;58.88;38.22;;;512.80;2380.80;;;;;;5054103;28;20036;-76
2023/10/13 07:51:10;;;;;;;46.40;36.38;;;512.80;2380.80;;;;;;5053837;28;20029;-78
2023/10/13 07:53:40;;;;;;;55.78;39.83;;;512.90;2380.80;;;;;;5052487;28;20098;-78
2023/10/13 07:56:08;;;;;;;60.60;38.03;;;537.60;2406.40;;;;;;5053642;28;20087;-78
2023/10/13 07:58:47;;;;;;;55.13;36.28;;;537.70;2406.40;;;;;;5052696;28;20056;-78
2023/10/13 08:01:17;;;;;;;48.88;34.95;;;537.80;2406.40;;;;;;5052535;28;20029;-78
2023/10/13 08:03:44;;;;;;;52.67;38.30;;;538.00;2406.40;;;;;;5053986;28;20017;-78
2023/10/13 08:08:40;;;;;;;51.30;34.63;;;538.10;2406.40;;;;;;5053999;28;20028;-78
2023/10/13 08:11:34;;;;;;;53.35;35.45;;;538.10;2406.40;;;;;;5052342;28;20028;-78
2023/10/13 08:14:11;;;;;;;51.72;34.45;;;538.30;2406.40;;;;;;5053180;28;20068;-78
2023/10/13 08:19:27;;;;;;;47.80;34.95;;;538.40;2406.40;;;;;;5053522;28;20052;-78
2023/10/13 08:22:14;;;;;;;42.00;29.42;;;538.50;2406.40;;;;;;5053340;28;20032;-78
2023/10/13 08:37:59;;;;;;;40.60;25.77;;;563.90;2432.00;;;;;;5053589;28;20502;-78
2023/10/13 08:43:12;;;;;;;44.78;26.48;;;563.90;2432.00;;;;;;5053674;28;20508;-76
2023/10/13 08:48:16;;;;;;;41.38;27.88;;;564.00;2432.00;;;;;;5053045;28;20067;-79
2023/10/13 08:53:31;;;;;;;40.40;25.75;;;564.10;2432.00;;;;;;5053088;28;20352;-79
2023/10/13 09:01:59;;;;;;;35.47;26.77;;;589.00;2432.00;;;;;;5052879;28;20483;-79
2023/10/13 09:04:32;;;;;;;36.42;24.65;;;589.20;2432.00;;;;;;5052930;28;20024;-78
2023/10/13 09:12:13;;;;;;;42.95;25.73;;;;;;;;;;5052980;28;20025;-77
2023/10/13 09:14:44;;;;;;;44.03;25.75;;;614.70;2432.00;;;;;;5052720;28;20586;-77
2023/10/13 09:19:49;;;;;;;41.03;25.20;;;615.20;2432.00;;;;;;5054714;28;20017;-79
2023/10/13 09:22:28;;;;;;;36.17;23.00;;;;;;;;;;5056813;28;20455;-77
2023/10/13 09:24:58;;;;;;;37.55;24.95;;;640.20;2432.00;;;;;;5056758;28;20047;-79
2023/10/13 09:27:26;;;;;;;41.33;25.27;;;;;;;;;;5056985;28;20070;-79
2023/10/13 09:30:07;;;;;;;33.97;22.08;;;640.80;2406.40;;;;;;5055233;28;20031;-78
2023/10/13 09:32:45;;;;;;;44.35;24.45;;;665.60;2380.80;;;;;;5055289;28;20490;-77
2023/10/13 09:35:18;;;;;;;38.20;23.60;;;665.90;2355.20;;;;;;5054972;28;20036;-77
2023/10/13 09:37:47;;;;;;;41.80;22.13;;;666.10;2304.00;;;;;;5056460;28;20029;-78
2023/10/13 09:40:25;;;;;;;34.13;23.48;;;666.10;2329.60;;;;;;5056417;28;20106;-77
2023/10/13 09:42:52;;;;;;;36.97;21.25;;;666.30;2304.00;;;;;;5054593;28;20394;-78
2023/10/13 09:45:18;;;;;;;36.45;24.05;;;;;;;;;;5055050;28;20044;-75
2023/10/13 09:47:52;;;;;;;33.28;21.90;;;691.20;2227.20;;;;;;5056069;28;20415;-74
2023/10/13 09:50:25;;;;;;;37.35;22.15;;;691.40;2176.00;;;;;;5056165;28;20025;-75
2023/10/13 09:52:52;;;;;;;31.80;20.92;;;691.60;2124.80;;;;;;5055239;28;20032;-75
2023/10/13 09:55:30;;;;;;;35.95;21.92;;;691.80;2099.20;;;;;;5055993;28;20048;-76
2023/10/13 09:58:13;;;;;;;33.47;20.30;;;;;;;;;;5054999;28;20475;-75
2023/10/13 10:01:07;;;;;;;33.47;21.15;;;716.90;2048.00;;;;;;5055378;28;20032;-73
2023/10/13 10:03:45;;;;;;;31.33;20.55;;;717.10;2048.00;;;;;;5056099;28;20475;-75
2023/10/13 10:06:27;;;;;;;40.40;21.50;;;717.20;2022.40;;;;;;5055747;28;20573;-75
2023/10/13 10:09:10;;;;;;;29.40;19.13;;;717.10;1996.80;;;;;;5055269;28;20025;-75
2023/10/13 10:12:09;;;;;;;31.52;21.20;;;717.30;1945.60;;;;;;5055690;28;20029;-74
2023/10/13 10:15:43;;;;;;;42.20;22.90;;;717.50;1945.60;;;;;;5046073;28;20033;-76
2023/10/13 10:18:19;;;;;;;38.75;23.27;;;717.70;1894.40;;;;;;5020160;28;20120;-75
2023/10/13 10:20:47;;;;;;;36.40;22.45;;;717.50;1920.00;;;;;;5033033;28;20492;-76
2023/10/13 10:23:39;;;;;;;42.10;27.45;;;742.40;1945.60;;;;;;5025660;28;20080;-76
2023/10/13 10:26:20;;;;;;;32.25;19.88;;;742.50;1868.80;;;;;;5029622;28;20476;-76
2023/10/13 10:28:46;;;;;;;33.13;18.67;;;717.70;1894.40;;;;;;5020060;28;20036;-76
2023/10/13 10:31:15;;;;;;;36.88;23.35;;;742.50;1868.80;;;;;;5018943;28;20026;-75
2023/10/13 10:33:41;;;;;;;40.58;22.38;;;742.60;1843.20;;;;;;5013801;28;20156;-75
2023/10/13 10:36:16;;;;;;;34.65;22.70;;;742.80;1843.20;;;;;;5027344;28;20043;-75
2023/10/13 10:39:05;;;;;;;40.25;21.40;;;742.90;1817.60;;;;;;5033179;28;20025;-76
2023/10/13 10:44:22;;;;;;;23.95;16.63;;;742.90;1792.00;;;;;;5032639;28;20672;-77
2023/10/13 10:46:57;;;;;;;21.35;11.90;;;743.00;1740.80;;;;;;5033119;28;20033;-76
2023/10/13 10:49:29;;;;;;;23.38;11.60;;;743.10;1715.20;;;;;;5033048;28;20029;-76
2023/10/13 10:52:07;;;;;;;22.88;13.02;;;743.10;1689.60;;;;;;5033113;28;20582;-77
2023/10/13 10:54:33;;;;;;;28.27;14.98;;;743.30;1689.60;;;;;;5051128;28;20033;-75
2023/10/13 10:57:17;;;;;;;25.55;16.13;;;743.00;1766.40;;;;;;5054634;28;20037;-75
2023/10/13 10:59:43;;;;;;;23.85;14.13;;;743.30;1689.60;;;;;;5054134;28;20013;-75
2023/10/13 11:02:11;;;;;;;21.45;11.00;;;;;;;;;;5054145;28;20036;-76
2023/10/13 11:04:53;;;;;;;25.98;11.20;;;768.10;1638.40;;;;;;5055390;28;20032;-76
2023/10/13 11:07:27;;;;;;;18.85;9.68;;;768.10;1638.40;;;;;;5054578;28;20527;-77
2023/10/13 11:10:05;;;;;;;18.33;9.07;;;768.00;1664.00;;;;;;5054162;28;20033;-75
2023/10/13 11:12:33;;;;;;;21.90;10.43;;;768.00;1664.00;;;;;;5053946;28;20120;-76
2023/10/13 11:15:13;;;;;;;20.58;10.57;;;768.00;1664.00;;;;;;5052616;28;20390;-75
2023/10/13 11:17:42;;;;;;;22.23;10.88;;;768.20;1638.40;;;;;;5053935;28;20033;-76
2023/10/13 11:20:17;;;;;;;22.10;11.43;;;768.40;1612.80;;;;;;5054552;28;20028;-76
2023/10/13 11:22:47;;;;;;;17.42;10.82;;;768.40;1638.40;;;;;;5063000;28;20036;-76
2023/10/13 11:25:35;;;;;;;22.17;10.65;;;768.30;1638.40;;;;;;5057820;28;20025;-74
2023/10/13 11:28:17;;;;;;;18.98;10.65;;;768.50;1612.80;;;;;;5054271;28;20024;-75
2023/10/13 11:30:49;;;;;;;30.33;12.05;;;768.30;1638.40;;;;;;5042835;28;20079;-75
2023/10/13 11:33:23;;;;;;;21.48;9.93;;;768.40;1612.80;;;;;;5054078;28;20017;-75
2023/10/13 11:36:01;;;;;;;25.88;10.98;;;768.30;1638.40;;;;;;5054292;28;20104;-76
2023/10/13 11:38:57;;;;;;;31.92;12.93;;;768.40;1587.20;;;;;;5053763;28;20044;-76
2023/10/13 11:41:21;;;;;;;24.67;12.55;;;768.60;1612.80;;;;;;5053321;28;20036;-75
2023/10/13 11:51:51;;;;;;;21.77;9.20;;;768.80;1561.60;;;;;;5050407;28;20394;-76
2023/10/13 11:54:18;;;;;;;21.98;8.32;;;;;;;;;;5055158;28;20471;-76
2023/10/13 11:56:45;;;;;;;12.85;8.00;;;768.80;1536.00;;;;;;5051285;28;20049;-75
2023/10/13 11:59:17;;;;;;;16.63;8.73;;;768.40;1561.60;;;;;;5053104;28;20021;-75
2023/10/13 12:07:14;;;;;;;20.50;9.48;;;768.40;1587.20;;;;;;5050732;28;20147;-75
2023/10/13 12:09:41;;;;;;;45.15;15.60;;;768.30;1587.20;;;;;;5061301;28;20851;-75
2023/10/13 12:12:08;;;;;;;24.10;12.30;;;768.30;1587.20;;;;;;5054765;28;20036;-75
2023/10/13 12:14:37;;;;;;;93.93;21.52;;;768.30;1561.60;;;;;;5058873;28;20084;-75
2023/10/13 12:17:10;;;;;;;24.88;13.75;;;768.30;1587.20;;;;;;5054625;28;20028;-75
2023/10/13 12:19:36;;;;;;;23.55;13.18;;;768.40;1561.60;;;;;;5050386;28;20033;-75
2023/10/13 12:22:08;;;;;;;23.63;14.10;;;768.50;1612.80;;;;;;5044970;28;20032;-75
2023/10/13 12:27:18;;;;;;;25.40;12.65;;;768.40;1612.80;;;;;;5041731;28;20044;-75
2023/10/13 12:29:51;;;;;;;21.33;11.82;;;768.60;1638.40;;;;;;5049655;28;20033;-75
2023/10/13 12:32:30;;;;;;;25.75;13.60;;;768.60;1612.80;;;;;;5040371;28;20028;-75
2023/10/13 12:51:20;;;;;;;22.50;13.40;;;768.00;1612.80;;;;;;5046209;28;20036;-75
2023/10/13 12:53:47;;;;;;;19.00;13.05;;;768.00;1587.20;;;;;;5052668;28;20029;-75
2023/10/13 12:56:13;;;;;;;25.65;14.30;;;743.20;1587.20;;;;;;5039850;28;20032;-75
2023/10/13 12:58:39;;;;;;;30.42;14.57;;;743.10;1664.00;;;;;;5051413;28;20554;-75
2023/10/13 13:01:08;;;;;;;23.10;13.15;;;743.00;1638.40;;;;;;5049611;28;20074;-75
2023/10/13 13:03:34;;;;;;;22.30;13.05;;;743.10;1612.80;;;;;;5051782;28;20025;-75
2023/10/13 13:06:07;;;;;;;24.60;12.98;;;743.10;1638.40;;;;;;5042099;28;20053;-75
2023/10/13 13:08:44;;;;;;;28.80;13.93;;;743.00;1638.40;;;;;;5039093;28;20038;-75
2023/10/13 13:11:10;;;;;;;24.40;13.85;;;742.90;1638.40;;;;;;5047515;28;20029;-75
2023/10/13 13:13:36;;;;;;;25.23;13.90;;;742.80;1664.00;;;;;;5043558;28;20040;-75
2023/10/13 13:16:03;;;;;;;23.35;14.55;;;742.60;1817.60;;;;;;5053564;28;20430;-75
2023/10/13 13:18:29;;;;;;;32.45;14.90;;;742.70;1664.00;;;;;;5063513;28;20462;-75
2023/10/13 13:20:55;;;;;;;25.45;13.25;;;742.50;1715.20;;;;;;5051028;28;20039;-74
2023/10/13 13:23:25;;;;;;;22.95;14.35;;;742.50;1689.60;;;;;;5045387;28;20036;-74
2023/10/13 13:25:51;;;;;;;22.15;15.02;;;742.40;1715.20;;;;;;5046780;28;20062;-74
2023/10/13 13:28:18;;;;;;;27.05;16.73;;;742.50;1689.60;;;;;;5044353;28;20036;-74
2023/10/13 13:30:46;;;;;;;31.27;17.50;;;742.50;1689.60;;;;;;5044283;28;20056;-74
2023/10/13 13:33:12;;;;;;;26.73;16.33;;;742.40;1689.60;;;;;;5053323;28;20462;-74
2023/10/13 13:35:44;;;;;;;26.48;16.63;;;742.40;1715.20;;;;;;5047762;28;20041;-78
2023/10/13 13:38:10;;;;;;;27.27;16.63;;;717.60;1715.20;;;;;;5053873;28;20041;-76
2023/10/13 13:40:39;;;;;;;26.02;17.08;;;717.50;1715.20;;;;;;5046784;28;20033;-78
2023/10/13 13:43:06;;;;;;;28.75;17.60;;;717.50;1689.60;;;;;;5037945;28;20060;-77
2023/10/13 13:45:34;;;;;;;35.17;21.10;;;717.50;1689.60;;;;;;5042711;28;20036;-78
2023/10/13 13:48:07;;;;;;;26.02;18.33;;;717.50;1715.20;;;;;;5045257;28;20018;-77
2023/10/13 13:50:38;;;;;;;32.78;19.10;;;717.50;1689.60;;;;;;5048137;28;20029;-76
2023/10/13 13:53:09;;;;;;;39.05;23.20;;;717.40;1715.20;;;;;;5048571;28;20076;-76
2023/10/13 13:55:35;;;;;;;42.35;24.40;;;717.30;1715.20;;;;;;5043209;28;20549;-77
2023/10/13 13:58:00;;;;;;;41.38;19.33;;;717.30;1715.20;;;;;;5047737;28;20033;-76
2023/10/13 14:00:42;;;;;;;126.35;75.57;;;717.30;1715.20;;;;;;5047940;28;20146;-77
2023/10/13 14:03:12;;;;;;;126.13;73.43;;;717.20;1715.20;;;;;;5053503;28;20479;-76
2023/10/13 14:05:45;;;;;;;55.55;35.00;;;717.10;1715.20;;;;;;5043700;28;20515;-76
2023/10/13 14:08:15;;;;;;;44.95;26.33;;;717.00;1715.20;;;;;;5048487;28;20029;-76
2023/10/13 14:13:48;;;;;;;35.97;22.38;;;716.90;1740.80;;;;;;5048207;28;20091;-76
2023/10/13 14:16:20;;;;;;;42.83;24.10;;;716.90;1740.80;;;;;;5048094;28;20394;-76
2023/10/13 14:18:46;;;;;;;117.80;63.47;;;716.80;1766.40;;;;;;5049726;28;20406;-76
2023/10/13 14:21:24;;;;;;;34.50;23.30;;;716.80;1766.40;;;;;;5046687;28;20082;-76
2023/10/13 14:23:53;;;;;;;23.55;16.13;;;716.80;1766.40;;;;;;5050641;28;20481;-77
2023/10/13 14:26:25;;;;;;;27.25;15.63;;;692.10;1766.40;;;;;;5055758;28;20120;-76
2023/10/13 14:29:07;;;;;;;28.00;16.60;;;692.10;1766.40;;;;;;5058890;28;20478;-76
2023/10/13 14:31:36;;;;;;;36.03;15.68;;;692.00;1766.40;;;;;;5050981;28;20029;-76
2023/10/13 14:34:02;;;;;;;30.35;16.75;;;691.90;1766.40;;;;;;5054850;28;20391;-75
2023/10/13 14:36:28;;;;;;;33.03;17.30;;;691.90;1766.40;;;;;;5057279;28;20058;-75
2023/10/13 14:38:55;;;;;;;28.65;15.82;;;716.80;1792.00;;;;;;5058209;28;20079;-76
2023/10/13 14:41:22;;;;;;;26.50;14.70;;;691.80;1766.40;;;;;;5058543;28;20061;-76
2023/10/13 14:43:47;;;;;;;51.00;30.45;;;691.80;1996.80;;;;;;5055509;28;20076;-77
2023/10/13 14:46:23;;;;;;;56.28;32.92;;;691.80;1792.00;;;;;;5060468;28;20044;-76
2023/10/13 14:48:52;;;;;;;81.93;48.53;;;691.80;1817.60;;;;;;5055338;28;20079;-76
2023/10/13 14:51:18;;;;;;;57.33;31.48;;;691.50;1843.20;;;;;;5058443;28;20108;-76
2023/10/13 14:53:48;;;;;;;54.15;27.63;;;691.70;1817.60;;;;;;5058213;28;20088;-77
2023/10/13 14:56:16;;;;;;;37.85;20.67;;;691.60;1843.20;;;;;;5049734;28;20032;-76
2023/10/13 14:58:44;;;;;;;36.20;23.95;;;691.50;1868.80;;;;;;5056948;28;20020;-76
2023/10/13 15:01:15;;;;;;;44.75;25.65;;;691.40;1920.00;;;;;;5054190;28;20020;-76
2023/10/13 15:03:45;;;;;;;48.50;23.23;;;691.40;1945.60;;;;;;5051421;28;20352;-76
2023/10/13 15:06:35;;;;;;;41.05;20.45;;;691.40;1945.60;;;;;;5059283;28;20501;-76
2023/10/13 15:09:01;;;;;;;41.08;18.75;;;691.30;1971.20;;;;;;5058734;28;20024;-77
2023/10/13 15:11:37;;;;;;;43.40;18.35;;;691.30;1971.20;;;;;;5055109;28;20036;-76
2023/10/13 15:14:04;;;;;;;34.97;16.17;;;666.50;2022.40;;;;;;5052148;28;20033;-76
2023/10/13 15:16:29;;;;;;;28.77;16.10;;;666.40;2048.00;;;;;;5060071;28;20490;-77
2023/10/13 15:18:55;;;;;;;28.40;16.08;;;666.30;2073.60;;;;;;5059914;28;20023;-76
2023/10/13 15:21:34;;;;;;;31.52;14.98;;;666.20;2073.60;;;;;;5055284;28;20055;-78
2023/10/13 15:24:04;;;;;;;41.38;16.88;;;666.10;2099.20;;;;;;5054585;28;20471;-78
2023/10/13 15:26:30;;;;;;;35.50;16.50;;;666.00;2150.40;;;;;;5045726;28;20029;-78
2023/10/13 15:29:00;;;;;;;35.53;15.15;;;665.90;2176.00;;;;;;5048022;28;20387;-78
2023/10/13 15:31:37;;;;;;;32.53;15.80;;;665.60;2201.60;;;;;;5053630;28;20560;-76
2023/10/13 15:34:06;;;;;;;38.63;15.70;;;640.80;2176.00;;;;;;5047243;28;20036;-77
2023/10/13 15:36:34;;;;;;;30.77;14.65;;;640.70;2201.60;;;;;;5053051;28;20028;-77
2023/10/13 15:39:00;;;;;;;32.95;13.95;;;640.50;2252.80;;;;;;5048562;28;20066;-76
2023/10/13 15:41:28;;;;;;;27.63;15.00;;;640.40;2304.00;;;;;;5049830;28;20033;-77
2023/10/13 15:43:55;;;;;;;36.15;14.32;;;640.40;2329.60;;;;;;5054687;28;20065;-76
2023/10/13 15:46:22;;;;;;;40.95;15.18;;;640.30;2329.60;;;;;;5053670;28;20033;-75